Observation data for Hart on 01/18/2019      Previous  Date  Next       Current Mesonet Observations  Soil Data  Daily Summary Page  Observations in Plain Language
KHRS 180600Z 19010KT 06/M02 A2999 RMK A01 T00551016  RH  061%=      5-min Rain = 0
KHRS 180605Z 19011KT 06/M02 A2998 RMK A01 T00571017  RH  060%=      5-min Rain = 0
KHRS 180610Z 20010KT 05/M02 A2998 RMK A01 T00531016  RH  061%=      5-min Rain = 0
KHRS 180615Z 20011KT 05/M02 A2998 RMK A01 T00501017  RH  062%=      5-min Rain = 0
KHRS 180620Z 20010KT 05/M02 A2998 RMK A01 T00461018  RH  064%=      5-min Rain = 0
KHRS 180625Z 22008KT 04/M02 A2998 RMK A01 T00431018  RH  065%=      5-min Rain = 0
KHRS 180630Z 26007KT 04/M02 A2999 RMK A01 T00361019  RH  068%=      5-min Rain = 0
KHRS 180635Z 27006KT 03/M02 A2999 RMK A01 T00271019  RH  072%=      5-min Rain = 0
KHRS 180640Z 26008KT 02/M02 A2999 RMK A01 T00241017  RH  075%=      5-min Rain = 0
KHRS 180645Z 23008KT 03/M02 A2998 RMK A01 T00301015  RH  073%=      5-min Rain = 0
KHRS 180650Z 24007KT 03/M02 A2998 RMK A01 T00311016  RH  072%=      5-min Rain = 0
KHRS 180655Z 25006KT 03/M02 A2998 RMK A01 T00271018  RH  073%=      5-min Rain = 0
KHRS 180700Z 26006KT 02/M02 A2998 RMK A01 T00211018  RH  076%=      5-min Rain = 0
KHRS 180705Z 26005KT 02/M02 A2998 RMK A01 T00181018  RH  078%=      5-min Rain = 0
KHRS 180710Z 25004KT 02/M02 A2997 RMK A01 T00171018  RH  078%=      5-min Rain = 0
KHRS 180715Z 25005KT 02/M02 A2997 RMK A01 T00161020  RH  078%=      5-min Rain = 0
KHRS 180720Z 25005KT 02/M02 A2996 RMK A01 T00151021  RH  078%=      5-min Rain = 0
KHRS 180725Z 23005KT 01/M02 A2996 RMK A01 T00131022  RH  078%=      5-min Rain = 0
KHRS 180730Z 21006KT 01/M02 A2995 RMK A01 T00111022  RH  080%=      5-min Rain = 0
KHRS 180735Z 20007KT 02/M02 A2995 RMK A01 T00151019  RH  079%=      5-min Rain = 0
KHRS 180740Z 21008KT 01/M02 A2994 RMK A01 T00121023  RH  079%=      5-min Rain = 0
KHRS 180745Z 21009KT 01/M02 A2994 RMK A01 T00091023  RH  080%=      5-min Rain = 0
KHRS 180750Z 21009KT 01/M03 A2994 RMK A01 T00071025  RH  080%=      5-min Rain = 0
KHRS 180755Z 20009KT 01/M02 A2994 RMK A01 T00051023  RH  082%=      5-min Rain = 0
KHRS 180800Z 20009KT 01/M02 A2993 RMK A01 T00081020  RH  083%=      5-min Rain = 0
KHRS 180805Z 19009KT 02/M01 A2993 RMK A01 T00151014  RH  082%=      5-min Rain = 0
KHRS 180810Z 19009KT 02/M01 A2993 RMK A01 T00201012  RH  080%=      5-min Rain = 0
KHRS 180815Z 19010KT 02/M01 A2992 RMK A01 T00201013  RH  079%=      5-min Rain = 0
KHRS 180820Z 19010KT 02/M01 A2992 RMK A01 T00221013  RH  079%=      5-min Rain = 0
KHRS 180825Z 19010KT 02/M01 A2992 RMK A01 T00201014  RH  079%=      5-min Rain = 0
KHRS 180830Z 20009KT 02/M01 A2992 RMK A01 T00201014  RH  080%=      5-min Rain = 0
KHRS 180835Z 21007KT 02/M01 A2992 RMK A01 T00191014  RH  080%=      5-min Rain = 0
KHRS 180840Z 21008KT 02/M01 A2992 RMK A01 T00201014  RH  079%=      5-min Rain = 0
KHRS 180845Z 20009KT 02/M02 A2992 RMK A01 T00181016  RH  079%=      5-min Rain = 0
KHRS 180850Z 20009KT 02/M01 A2992 RMK A01 T00171013  RH  081%=      5-min Rain = 0
KHRS 180855Z 22009KT 02/M01 A2992 RMK A01 T00221013  RH  079%=      5-min Rain = 0
KHRS 180900Z 22009KT 02/M02 A2992 RMK A01 T00181016  RH  079%=      5-min Rain = 0
KHRS 180905Z 22009KT 02/M02 A2991 RMK A01 T00151016  RH  081%=      5-min Rain = 0
KHRS 180910Z 23009KT 01/M02 A2992 RMK A01 T00121017  RH  081%=      5-min Rain = 0
KHRS 180915Z 23008KT 01/M02 A2991 RMK A01 T00101018  RH  082%=      5-min Rain = 0
KHRS 180920Z 24007KT 01/M02 A2991 RMK A01 T00081020  RH  083%=      5-min Rain = 0
KHRS 180925Z 24008KT 01/M02 A2991 RMK A01 T00081019  RH  083%=      5-min Rain = 0
KHRS 180930Z 23009KT 01/M02 A2991 RMK A01 T00081019  RH  083%=      5-min Rain = 0
KHRS 180935Z 23008KT 01/M02 A299 RMK A01 T00061021  RH  083%=      5-min Rain = 0
KHRS 180940Z 23007KT 01/M02 A299 RMK A01 T00071019  RH  083%=      5-min Rain = 0
KHRS 180945Z 24007KT 01/M02 A299 RMK A01 T00101017  RH  083%=      5-min Rain = 0
KHRS 180950Z 24007KT 02/M02 A299 RMK A01 T00161015  RH  081%=      5-min Rain = 0
KHRS 180955Z 24007KT 02/M02 A299 RMK A01 T00201015  RH  079%=      5-min Rain = 0
KHRS 181000Z 25007KT 02/M02 A2989 RMK A01 T00211015  RH  078%=      5-min Rain = 0
KHRS 181005Z 23008KT 02/M01 A2989 RMK A01 T00221014  RH  078%=      5-min Rain = 0
KHRS 181010Z 22008KT 02/M02 A2988 RMK A01 T00221015  RH  077%=      5-min Rain = 0
KHRS 181015Z 23009KT 03/M02 A2988 RMK A01 T00251015  RH  076%=      5-min Rain = 0
KHRS 181020Z 24009KT 03/M02 A2988 RMK A01 T00271015  RH  075%=      5-min Rain = 0
KHRS 181025Z 24009KT 03/M02 A2988 RMK A01 T00271016  RH  074%=      5-min Rain = 0
KHRS 181030Z 24008KT 03/M02 A2987 RMK A01 T00251017  RH  075%=      5-min Rain = 0
KHRS 181035Z 24008KT 02/M02 A2987 RMK A01 T00221018  RH  075%=      5-min Rain = 0
KHRS 181040Z 24008KT 02/M02 A2986 RMK A01 T00191019  RH  077%=      5-min Rain = 0
KHRS 181045Z 23008KT 02/M02 A2986 RMK A01 T00161021  RH  077%=      5-min Rain = 0
KHRS 181050Z 23009KT 02/M02 A2985 RMK A01 T00161020  RH  078%=      5-min Rain = 0
KHRS 181055Z 23010KT 02/M02 A2985 RMK A01 T00241017  RH  076%=      5-min Rain = 0
KHRS 181100Z 23012KT 03/M02 A2985 RMK A01 T00281016  RH  074%=      5-min Rain = 0
KHRS 181105Z 23011KT 03/M02 A2985 RMK A01 T00311015  RH  072%=      5-min Rain = 0
KHRS 181110Z 22011KT 03/M02 A2984 RMK A01 T00301016  RH  073%=      5-min Rain = 0
KHRS 181115Z 22011KT 03/M02 A2983 RMK A01 T00331015  RH  072%=      5-min Rain = 0
KHRS 181120Z 22012KT 04/M01 A2983 RMK A01 T00361014  RH  070%=      5-min Rain = 0
KHRS 181125Z 22014KT 04/M01 A2983 RMK A01 T00411014  RH  068%=      5-min Rain = 0
KHRS 181130Z 22013KT 05/M01 A2982 RMK A01 T00461013  RH  066%=      5-min Rain = 0
KHRS 181135Z 22011KT 05/M01 A2982 RMK A01 T00481013  RH  065%=      5-min Rain = 0
KHRS 181140Z 23011KT 05/M01 A2982 RMK A01 T00501013  RH  064%=      5-min Rain = 0
KHRS 181145Z 23011KT 05/M01 A2981 RMK A01 T00511013  RH  064%=      5-min Rain = 0
KHRS 181150Z 23012KT 05/M01 A2981 RMK A01 T00541012  RH  063%=      5-min Rain = 0
KHRS 181155Z 23012KT 06/M01 A2981 RMK A01 T00571011  RH  062%=      5-min Rain = 0
KHRS 181200Z 23013KT 06/M01 A2981 RMK A01 T00591011  RH  061%=      5-min Rain = 0
KHRS 181205Z 24012KT 06/M01 A2981 RMK A01 T00611011  RH  061%=      5-min Rain = 0
KHRS 181210Z 24012KT 06/M01 A2982 RMK A01 T00621010  RH  061%=      5-min Rain = 0
KHRS 181215Z 24012G17KT 06/M01 A2982 RMK A01 T00621009  RH  061%=      5-min Rain = 0
KHRS 181220Z 24013G18KT 06/M01 A2982 RMK A01 T00631009  RH  061%=      5-min Rain = 0
KHRS 181225Z 23013KT 06/M01 A2981 RMK A01 T00641010  RH  060%=      5-min Rain = 0
KHRS 181230Z 23013KT 06/M01 A2981 RMK A01 T00621010  RH  061%=      5-min Rain = 0
KHRS 181235Z 23012KT 06/M01 A298 RMK A01 T00621010  RH  061%=      5-min Rain = 0
KHRS 181240Z 23013KT 06/M01 A298 RMK A01 T00601010  RH  061%=      5-min Rain = 0
KHRS 181245Z 23012KT 06/M01 A298 RMK A01 T00611010  RH  061%=      5-min Rain = 0
KHRS 181250Z 23011KT 06/M01 A298 RMK A01 T00601011  RH  061%=      5-min Rain = 0
KHRS 181255Z 23012KT 06/M01 A298 RMK A01 T00601011  RH  061%=      5-min Rain = 0
KHRS 181300Z 23012KT 06/M01 A298 RMK A01 T00601011  RH  061%=      5-min Rain = 0
KHRS 181305Z 23012KT 06/M01 A298 RMK A01 T00591010  RH  062%=      5-min Rain = 0
KHRS 181310Z 23011G16KT 06/M01 A298 RMK A01 T00611010  RH  061%=      5-min Rain = 0
KHRS 181315Z 23012KT 06/M01 A298 RMK A01 T00611011  RH  061%=      5-min Rain = 0
KHRS 181320Z 23012KT 06/M01 A298 RMK A01 T00631011  RH  060%=      5-min Rain = 0
KHRS 181325Z 22013KT 06/M01 A298 RMK A01 T00641011  RH  059%=      5-min Rain = 0
KHRS 181330Z 23011KT 06/M01 A298 RMK A01 T00641010  RH  059%=      5-min Rain = 0
KHRS 181335Z 23011KT 07/M01 A298 RMK A01 T00651010  RH  059%=      5-min Rain = 0
KHRS 181340Z 23011KT 06/M01 A2979 RMK A01 T00621010  RH  061%=      5-min Rain = 0
KHRS 181345Z 22011KT 06/M01 A2979 RMK A01 T00601010  RH  062%=      5-min Rain = 0
KHRS 181350Z 22011KT 06/M01 A298 RMK A01 T00581011  RH  062%=      5-min Rain = 0
KHRS 181355Z 22011KT 06/M01 A298 RMK A01 T00581012  RH  062%=      5-min Rain = 0
KHRS 181400Z 22010KT 06/M01 A2979 RMK A01 T00581012  RH  061%=      5-min Rain = 0
KHRS 181405Z 23010G15KT 06/M01 A2979 RMK A01 T00571012  RH  062%=      5-min Rain = 0
KHRS 181410Z 24010KT 06/M01 A2979 RMK A01 T00601012  RH  061%=      5-min Rain = 0
KHRS 181415Z 25010KT 06/M01 A298 RMK A01 T00601011  RH  061%=      5-min Rain = 0
KHRS 181420Z 24011KT 06/M01 A298 RMK A01 T00601010  RH  061%=      5-min Rain = 0
KHRS 181425Z 24011KT 06/M01 A298 RMK A01 T00631010  RH  060%=      5-min Rain = 0
KHRS 181430Z 24011KT 07/M01 A2979 RMK A01 T00651009  RH  060%=      5-min Rain = 0
KHRS 181435Z 24012KT 07/M01 A2979 RMK A01 T00711007  RH  058%=      5-min Rain = 0
KHRS 181440Z 24013KT 08/M01 A2979 RMK A01 T00771005  RH  057%=      5-min Rain = 0
KHRS 181445Z 24012G17KT 08/M00 A2979 RMK A01 T00791004  RH  056%=      5-min Rain = 0
KHRS 181450Z 25014G19KT 08/M01 A2979 RMK A01 T00781005  RH  056%=      5-min Rain = 0
KHRS 181455Z 25015KT 07/M01 A2979 RMK A01 T00731008  RH  057%=      5-min Rain = 0
KHRS 181500Z 25014G19KT 07/M01 A2979 RMK A01 T00681008  RH  059%=      5-min Rain = 0
KHRS 181505Z 25015KT 07/M01 A2979 RMK A01 T00691006  RH  059%=      5-min Rain = 0
KHRS 181510Z 25016KT 08/M00 A2979 RMK A01 T00771004  RH  057%=      5-min Rain = 0
KHRS 181515Z 25016G22KT 08/M00 A298 RMK A01 T00791003  RH  057%=      5-min Rain = 0
KHRS 181520Z 25017G22KT 08/M00 A298 RMK A01 T00821004  RH  055%=      5-min Rain = 0
KHRS 181525Z 25017G26KT 09/M00 A2979 RMK A01 T00871003  RH  054%=      5-min Rain = 0
KHRS 181530Z 26020G25KT 09/M01 A2979 RMK A01 T00891005  RH  052%=      5-min Rain = 0
KHRS 181535Z 25019G24KT 09/M01 A2979 RMK A01 T00891005  RH  052%=      5-min Rain = 0
KHRS 181540Z 25019G24KT 09/M00 A2979 RMK A01 T00941002  RH  052%=      5-min Rain = 0
KHRS 181545Z 25022G28KT 11/M00 A2979 RMK A01 T01051001  RH  048%=      5-min Rain = 0
KHRS 181550Z 25022KT 11/M00 A2979 RMK A01 T01061001  RH  048%=      5-min Rain = 0
KHRS 181555Z 26020G25KT 11/00 A2979 RMK A01 T01060003  RH  049%=      5-min Rain = 0
KHRS 181600Z 26020G26KT 11/00 A2979 RMK A01 T01100004  RH  048%=      5-min Rain = 0
KHRS 181605Z 26019G24KT 12/01 A2979 RMK A01 T01190008  RH  047%=      5-min Rain = 0
KHRS 181610Z 26021KT 13/01 A2978 RMK A01 T01270010  RH  045%=      5-min Rain = 0
KHRS 181615Z 26021G28KT 13/01 A2978 RMK A01 T01320012  RH  045%=      5-min Rain = 0
KHRS 181620Z 26024G29KT 14/01 A2978 RMK A01 T01370014  RH  044%=      5-min Rain = 0
KHRS 181625Z 26024G30KT 14/02 A2978 RMK A01 T01400016  RH  044%=      5-min Rain = 0
KHRS 181630Z 25026G34KT 14/01 A2978 RMK A01 T01430013  RH  041%=      5-min Rain = 0
KHRS 181635Z 25023G30KT 14/01 A2978 RMK A01 T01440014  RH  042%=      5-min Rain = 0
KHRS 181640Z 25023G29KT 14/01 A2978 RMK A01 T01440010  RH  041%=      5-min Rain = 0
KHRS 181645Z 25024G32KT 14/01 A2977 RMK A01 T01410007  RH  040%=      5-min Rain = 0
KHRS 181650Z 24022G31KT 14/01 A2977 RMK A01 T01410007  RH  040%=      5-min Rain = 0
KHRS 181655Z 25024G34KT 14/01 A2977 RMK A01 T01410006  RH  040%=      5-min Rain = 0
KHRS 181700Z 24022G30KT 14/01 A2977 RMK A01 T01430006  RH  040%=      5-min Rain = 0
KHRS 181705Z 24024G30KT 14/00 A2976 RMK A01 T01410003  RH  039%=      5-min Rain = 0
KHRS 181710Z 25023G28KT 14/01 A2976 RMK A01 T01430005  RH  039%=      5-min Rain = 0
KHRS 181715Z 24022G28KT 15/00 A2976 RMK A01 T01450004  RH  038%=      5-min Rain = 0
KHRS 181720Z 24022G28KT 15/00 A2975 RMK A01 T01470004  RH  038%=      5-min Rain = 0
KHRS 181725Z 25024G32KT 15/01 A2975 RMK A01 T01500005  RH  038%=      5-min Rain = 0
KHRS 181730Z 25024G32KT 16/01 A2974 RMK A01 T01550007  RH  037%=      5-min Rain = 0
KHRS 181735Z 24023G30KT 16/01 A2974 RMK A01 T01560007  RH  037%=      5-min Rain = 0
KHRS 181740Z 25029G38KT 16/01 A2974 RMK A01 T01570009  RH  037%=      5-min Rain = 0
KHRS 181745Z 25028G36KT 16/01 A2974 RMK A01 T01600010  RH  037%=      5-min Rain = 0
KHRS 181750Z 25029G34KT 16/01 A2973 RMK A01 T01600008  RH  036%=      5-min Rain = 0
KHRS 181755Z 25029G38KT 16/01 A2972 RMK A01 T01630010  RH  036%=      5-min Rain = 0
KHRS 181800Z 26031G39KT 17/01 A2972 RMK A01 T01660010  RH  035%=      5-min Rain = 0
KHRS 181805Z 25031G40KT 17/01 A2971 RMK A01 T01660006  RH  034%=      5-min Rain = 0
KHRS 181810Z 25031G36KT 17/01 A2971 RMK A01 T01670005  RH  034%=      5-min Rain = 0
KHRS 181815Z 26028G37KT 17/01 A2971 RMK A01 T01680009  RH  035%=      5-min Rain = 0
KHRS 181820Z 26028G37KT 17/01 A2971 RMK A01 T01700009  RH  034%=      5-min Rain = 0
KHRS 181825Z 25030G39KT 17/01 A297 RMK A01 T01690013  RH  035%=      5-min Rain = 0
KHRS 181830Z 26029G38KT 17/01 A297 RMK A01 T01680014  RH  036%=      5-min Rain = 0
KHRS 181835Z 25030G37KT 17/02 A297 RMK A01 T01680018  RH  037%=      5-min Rain = 0
KHRS 181840Z 26031G38KT 17/02 A2969 RMK A01 T01680019  RH  037%=      5-min Rain = 0
KHRS 181845Z 26033G40KT 17/02 A2969 RMK A01 T01670020  RH  038%=      5-min Rain = 0
KHRS 181850Z 26029G37KT 17/02 A2968 RMK A01 T01680022  RH  038%=      5-min Rain = 0
KHRS 181855Z 26032G39KT 17/01 A2968 RMK A01 T01680014  RH  036%=      5-min Rain = 0
KHRS 181900Z 26031G39KT 17/01 A2968 RMK A01 T01680010  RH  035%=      5-min Rain = 0
KHRS 181905Z 26031G39KT 17/01 A2967 RMK A01 T01700009  RH  034%=      5-min Rain = 0
KHRS 181910Z 26032G39KT 17/00 A2967 RMK A01 T01700004  RH  033%=      5-min Rain = 0
KHRS 181915Z 26032G43KT 17/00 A2966 RMK A01 T01690003  RH  033%=      5-min Rain = 0
KHRS 181920Z 26029G37KT 17/01 A2966 RMK A01 T01700007  RH  034%=      5-min Rain = 0
KHRS 181925Z 25029G37KT 17/01 A2965 RMK A01 T01720008  RH  033%=      5-min Rain = 0
KHRS 181930Z 26030G37KT 17/01 A2965 RMK A01 T01720010  RH  034%=      5-min Rain = 0
KHRS 181935Z 26029G37KT 17/01 A2965 RMK A01 T01710008  RH  034%=      5-min Rain = 0
KHRS 181940Z 26031G38KT 17/M00 A2964 RMK A01 T01661001  RH  032%=      5-min Rain = 0
KHRS 181945Z 25029G38KT 17/00 A2964 RMK A01 T01670003  RH  033%=      5-min Rain = 0
KHRS 181950Z 25031G37KT 17/00 A2964 RMK A01 T01660003  RH  033%=      5-min Rain = 0
KHRS 181955Z 26026G35KT 17/01 A2964 RMK A01 T01650005  RH  034%=      5-min Rain = 0
KHRS 182000Z 26028G35KT 17/00 A2964 RMK A01 T01670004  RH  034%=      5-min Rain = 0
KHRS 182005Z 26030G35KT 17/00 A2963 RMK A01 T01700004  RH  033%=      5-min Rain = 0
KHRS 182010Z 26028G34KT 17/00 A2963 RMK A01 T01700002  RH  032%=      5-min Rain = 0
KHRS 182015Z 26029G36KT 17/00 A2963 RMK A01 T017200-0  RH  031%=      5-min Rain = 0
KHRS 182020Z 26028G34KT 17/M00 A2963 RMK A01 T01731003  RH  031%=      5-min Rain = 0
KHRS 182025Z 26029G35KT 17/M01 A2963 RMK A01 T01741006  RH  030%=      5-min Rain = 0
KHRS 182030Z 26028G34KT 17/M01 A2963 RMK A01 T01741007  RH  030%=      5-min Rain = 0
KHRS 182035Z 27025G30KT 17/M01 A2963 RMK A01 T01731005  RH  030%=      5-min Rain = 0
KHRS 182040Z 26024G31KT 17/M00 A2963 RMK A01 T01741004  RH  030%=      5-min Rain = 0
KHRS 182045Z 26027G32KT 17/M00 A2963 RMK A01 T01651003  RH  032%=      5-min Rain = 0
KHRS 182050Z 25025G33KT 16/M00 A2963 RMK A01 T01631003  RH  033%=      5-min Rain = 0
KHRS 182055Z 25023G30KT 16/M00 A2963 RMK A01 T01611004  RH  033%=      5-min Rain = 0
KHRS 182100Z 25023G30KT 16/M01 A2963 RMK A01 T01641005  RH  032%=      5-min Rain = 0
KHRS 182105Z 24024G29KT 17/M00 A2963 RMK A01 T01661004  RH  032%=      5-min Rain = 0
KHRS 182110Z 24023G28KT 17/M00 A2963 RMK A01 T01661004  RH  032%=      5-min Rain = 0
KHRS 182115Z 24022G30KT 17/M01 A2963 RMK A01 T01671005  RH  031%=      5-min Rain = 0
KHRS 182120Z 25025G33KT 17/M01 A2963 RMK A01 T01701005  RH  031%=      5-min Rain = 0
KHRS 182125Z 26026G34KT 17/M01 A2963 RMK A01 T01721014  RH  028%=      5-min Rain = 0
KHRS 182130Z 27024G29KT 17/M03 A2963 RMK A01 T01661026  RH  027%=      5-min Rain = 0
KHRS 182135Z 26022G29KT 16/M03 A2963 RMK A01 T01631030  RH  027%=      5-min Rain = 0
KHRS 182140Z 25024G30KT 16/M04 A2963 RMK A01 T01641036  RH  025%=      5-min Rain = 0
KHRS 182145Z 25026G32KT 17/M04 A2963 RMK A01 T01681035  RH  025%=      5-min Rain = 0
KHRS 182150Z 25022G30KT 16/M03 A2963 RMK A01 T01641026  RH  027%=      5-min Rain = 0
KHRS 182155Z 25024G30KT 16/M04 A2963 RMK A01 T01581039  RH  026%=      5-min Rain = 0
KHRS 182200Z 25026G35KT 15/M03 A2963 RMK A01 T01541034  RH  028%=      5-min Rain = 0
KHRS 182205Z 25025G32KT 15/M03 A2964 RMK A01 T01521034  RH  028%=      5-min Rain = 0
KHRS 182210Z 26021G26KT 15/M04 A2964 RMK A01 T01511036  RH  028%=      5-min Rain = 0
KHRS 182215Z 27022G29KT 15/M04 A2964 RMK A01 T01511044  RH  026%=      5-min Rain = 0
KHRS 182220Z 26023G30KT 15/M05 A2965 RMK A01 T01491046  RH  026%=      5-min Rain = 0
KHRS 182225Z 26027G34KT 15/M05 A2965 RMK A01 T01461049  RH  026%=      5-min Rain = 0
KHRS 182230Z 26026G31KT 14/M05 A2965 RMK A01 T01421052  RH  026%=      5-min Rain = 0
KHRS 182235Z 26025G33KT 14/M05 A2965 RMK A01 T01401053  RH  026%=      5-min Rain = 0
KHRS 182240Z 26024G31KT 14/M05 A2965 RMK A01 T01401052  RH  026%=      5-min Rain = 0
KHRS 182245Z 26023G28KT 14/M05 A2965 RMK A01 T01381048  RH  027%=      5-min Rain = 0
KHRS 182250Z 26026KT 14/M05 A2965 RMK A01 T01371048  RH  028%=      5-min Rain = 0
KHRS 182255Z 26022G31KT 14/M05 A2966 RMK A01 T01371048  RH  028%=      5-min Rain = 0
KHRS 182300Z 26022G30KT 14/M05 A2966 RMK A01 T01371046  RH  028%=      5-min Rain = 0
KHRS 182305Z 26024G34KT 14/M04 A2965 RMK A01 T01401040  RH  029%=      5-min Rain = 0
KHRS 182310Z 26026G32KT 14/M04 A2965 RMK A01 T01431038  RH  029%=      5-min Rain = 0
KHRS 182315Z 26025G30KT 14/M04 A2965 RMK A01 T01431039  RH  028%=      5-min Rain = 0
KHRS 182320Z 27025G33KT 14/M04 A2965 RMK A01 T01401042  RH  028%=      5-min Rain = 0
KHRS 182325Z 27023KT 14/M05 A2965 RMK A01 T01361045  RH  028%=      5-min Rain = 0
KHRS 182330Z 27022G27KT 13/M05 A2965 RMK A01 T01341045  RH  029%=      5-min Rain = 0
KHRS 182335Z 27020KT 13/M04 A2965 RMK A01 T01321043  RH  030%=      5-min Rain = 0
KHRS 182340Z 27020G26KT 13/M04 A2965 RMK A01 T01301042  RH  030%=      5-min Rain = 0
KHRS 182345Z 27017KT 13/M04 A2965 RMK A01 T01261040  RH  031%=      5-min Rain = 0
KHRS 182350Z 27016KT 12/M04 A2966 RMK A01 T01231039  RH  032%=      5-min Rain = 0
KHRS 182355Z 33023G42KT 12/M02 A2968 RMK A01 T01151019  RH  040%=      5-min Rain = 0
KHRS 190000Z 34030G43KT 10/M00 A2969 RMK A01 T00971004  RH  050%=      5-min Rain = 0
KHRS 190005Z 35029G39KT 09/M01 A2969 RMK A01 T00901005  RH  052%=      5-min Rain = 0
KHRS 190010Z 35029G39KT 09/M01 A297 RMK A01 T00871006  RH  053%=      5-min Rain = 0
KHRS 190015Z 35029G34KT 08/M01 A2972 RMK A01 T00841006  RH  054%=      5-min Rain = 0
KHRS 190020Z 35026G32KT 08/M01 A2973 RMK A01 T00821005  RH  055%=      5-min Rain = 0
KHRS 190025Z 35025G33KT 08/M01 A2973 RMK A01 T00791005  RH  056%=      5-min Rain = 0
KHRS 190030Z 35025G31KT 08/M00 A2974 RMK A01 T00761004  RH  058%=      5-min Rain = 0
KHRS 190035Z 35027G33KT 07/M00 A2975 RMK A01 T00731003  RH  059%=      5-min Rain = 0
KHRS 190040Z 35022G29KT 07/M00 A2975 RMK A01 T00701004  RH  060%=      5-min Rain = 0
KHRS 190045Z 35027G35KT 07/M00 A2976 RMK A01 T00671003  RH  062%=      5-min Rain = 0
KHRS 190050Z 35028G38KT 06/M00 A2977 RMK A01 T00641002  RH  063%=      5-min Rain = 0
KHRS 190055Z 35029G36KT 06/00 A2978 RMK A01 T00620000  RH  065%=      5-min Rain = 0
KHRS 190100Z 34029G36KT 06/00 A2978 RMK A01 T00570004  RH  069%=      5-min Rain = 0
KHRS 190105Z 34027G33KT 05/01 A2979 RMK A01 T00530009  RH  074%=      5-min Rain = 0
KHRS 190110Z 34029G38KT 05/01 A298 RMK A01 T00500012  RH  077%=      5-min Rain = 0
KHRS 190115Z 34031G38KT 05/01 A298 RMK A01 T00470014  RH  081%=      5-min Rain = 0
KHRS 190120Z 34030G35KT 04/02 A2981 RMK A01 T00410017  RH  086%=      5-min Rain = 0.01
KHRS 190125Z 34030G38KT 04/02 A2982 RMK A01 T00360017  RH  088%=      5-min Rain = 0.01
KHRS 190130Z 34030G36KT 03/01 A2983 RMK A01 T00310014  RH  090%=      5-min Rain = 0.01
KHRS 190135Z 34027G33KT 03/01 A2983 RMK A01 T00280014  RH  092%=      5-min Rain = 0
KHRS 190140Z 35024G32KT 02/01 A2984 RMK A01 T00240012  RH  093%=      5-min Rain = 0.01
KHRS 190145Z 35023G28KT 02/01 A2984 RMK A01 T00210011  RH  094%=      5-min Rain = 0
KHRS 190150Z 34024G32KT 02/01 A2985 RMK A01 T00200011  RH  095%=      5-min Rain = 0
KHRS 190155Z 35025G32KT 02/01 A2986 RMK A01 T00190011  RH  095%=      5-min Rain = 0
KHRS 190200Z 35025G31KT 02/01 A2986 RMK A01 T00180010  RH  096%=      5-min Rain = 0
KHRS 190205Z 35022G33KT 02/01 A2987 RMK A01 T00180010  RH  096%=      5-min Rain = 0
KHRS 190210Z 35026G32KT 02/01 A2987 RMK A01 T00180009  RH  095%=      5-min Rain = 0
KHRS 190215Z 35025G31KT 02/01 A2988 RMK A01 T00170008  RH  094%=      5-min Rain = 0
KHRS 190220Z 35027G35KT 02/01 A2988 RMK A01 T00160006  RH  094%=      5-min Rain = 0
KHRS 190225Z 35027G36KT 01/00 A2989 RMK A01 T00140001  RH  093%=      5-min Rain = 0
KHRS 190230Z 35028G35KT 01/M00 A2989 RMK A01 T00111002  RH  092%=      5-min Rain = 0
KHRS 190235Z 35027G34KT 01/M00 A2989 RMK A01 T00101003  RH  092%=      5-min Rain = 0
KHRS 190240Z 35024G31KT 01/M00 A299 RMK A01 T00091002  RH  093%=      5-min Rain = 0
KHRS 190245Z 35027G33KT 01/M00 A299 RMK A01 T00091002  RH  094%=      5-min Rain = 0
KHRS 190250Z 35025G33KT 01/M00 A299 RMK A01 T00091002  RH  094%=      5-min Rain = 0
KHRS 190255Z 35026G34KT 01/M00 A2991 RMK A01 T00091002  RH  094%=      5-min Rain = 0
KHRS 190300Z 34025G33KT 01/M00 A2992 RMK A01 T00091001  RH  094%=      5-min Rain = 0
KHRS 190305Z 34024G33KT 01/00 A2992 RMK A01 T000900-0  RH  095%=      5-min Rain = 0
KHRS 190310Z 34027G33KT 01/M00 A2993 RMK A01 T00081001  RH  095%=      5-min Rain = 0
KHRS 190315Z 34033G42KT 01/M01 A2993 RMK A01 T00061005  RH  093%=      5-min Rain = 0
KHRS 190320Z 34033G43KT 01/M01 A2994 RMK A01 T00051010  RH  091%=      5-min Rain = 0
KHRS 190325Z 35033G43KT 00/M01 A2994 RMK A01 T00041012  RH  090%=      5-min Rain = 0
KHRS 190330Z 34031G41KT 00/M01 A2995 RMK A01 T00041013  RH  090%=      5-min Rain = 0
KHRS 190335Z 34028G35KT 00/M01 A2995 RMK A01 T00031011  RH  091%=      5-min Rain = 0
KHRS 190340Z 34025G32KT 00/M01 A2996 RMK A01 T00031010  RH  092%=      5-min Rain = 0
KHRS 190345Z 34024G30KT 00/M01 A2996 RMK A01 T00031009  RH  093%=      5-min Rain = 0
KHRS 190350Z 34026G34KT 00/M01 A2996 RMK A01 T00031009  RH  093%=      5-min Rain = 0
KHRS 190355Z 34026G31KT 00/M01 A2997 RMK A01 T00031009  RH  093%=      5-min Rain = 0
KHRS 190400Z 34025G31KT 00/M01 A2997 RMK A01 T00031008  RH  093%=      5-min Rain = 0
KHRS 190405Z 34025G32KT 00/M01 A2997 RMK A01 T00031008  RH  093%=      5-min Rain = 0
KHRS 190410Z 34025G34KT 00/M01 A2998 RMK A01 T00031008  RH  094%=      5-min Rain = 0
KHRS 190415Z 34025G34KT 00/M01 A2998 RMK A01 T00011008  RH  095%=      5-min Rain = 0
KHRS 190420Z 34027G34KT M00/M01 A2999 RMK A01 T10011008  RH  096%=      5-min Rain = 0
KHRS 190425Z 34027G35KT M00/M01 A2999 RMK A01 T10011008  RH  096%=      5-min Rain = 0
KHRS 190430Z 34025G33KT 00/01 A30 RMK A01 T00-000-7  RH  096%=      5-min Rain = 0
KHRS 190435Z 34024G31KT 00/01 A3001 RMK A01 T00-000-7  RH  096%=      5-min Rain = 0
KHRS 190440Z 34026G34KT 00/01 A3001 RMK A01 T00-000-8  RH  096%=      5-min Rain = 0
KHRS 190445Z 34027G36KT M00/M01 A3001 RMK A01 T10011009  RH  095%=      5-min Rain = 0
KHRS 190450Z 34027G34KT M00/M01 A3002 RMK A01 T10021010  RH  095%=      5-min Rain = 0
KHRS 190455Z 34025G31KT M00/M01 A3002 RMK A01 T10031010  RH  096%=      5-min Rain = 0
KHRS 190500Z 34023G30KT M00/M01 A3002 RMK A01 T10041010  RH  096%=      5-min Rain = 0
KHRS 190505Z 34022G27KT M00/M01 A3003 RMK A01 T10041010  RH  097%=      5-min Rain = 0
KHRS 190510Z 34019G25KT M00/M01 A3003 RMK A01 T10041009  RH  097%=      5-min Rain = 0
KHRS 190515Z 34020KT M00/M01 A3003 RMK A01 T10041009  RH  098%=      5-min Rain = 0
KHRS 190520Z 35020G26KT M01/M01 A3003 RMK A01 T10051009  RH  098%=      5-min Rain = 0
KHRS 190525Z 34022G31KT M01/M01 A3003 RMK A01 T10061011  RH  097%=      5-min Rain = 0
KHRS 190530Z 34021G27KT M01/M01 A3004 RMK A01 T10061012  RH  097%=      5-min Rain = 0
KHRS 190535Z 34022G27KT M01/M01 A3004 RMK A01 T10071013  RH  097%=      5-min Rain = 0
KHRS 190540Z 34021G26KT M01/M01 A3004 RMK A01 T10071013  RH  097%=      5-min Rain = 0
KHRS 190545Z 34021G26KT M01/M01 A3004 RMK A01 T10061012  RH  097%=      5-min Rain = 0
KHRS 190550Z 33022G33KT M00/M01 A3005 RMK A01 T10041010  RH  097%=      5-min Rain = 0
KHRS 190555Z 33024G30KT M00/M01 A3005 RMK A01 T10031010  RH  096%=      5-min Rain = 0

Page generated in 0.0092 seconds.